sensor_id;sensor_type;location;lat;lon;timestamp;P1;durP1;ratioP1;P2;durP2;ratioP2
9322;SDS011;4700;48.822;9.270;2023-06-01T00:01:13;303.17;;;289.37;;
9322;SDS011;4700;48.822;9.270;2023-06-01T00:04:01;301.07;;;287.37;;
9322;SDS011;4700;48.822;9.270;2023-06-01T00:06:47;288.33;;;275.20;;
9322;SDS011;4700;48.822;9.270;2023-06-01T00:09:33;302.50;;;287.97;;
9322;SDS011;4700;48.822;9.270;2023-06-01T00:12:19;328.07;;;313.10;;
9322;SDS011;4700;48.822;9.270;2023-06-01T00:15:05;325.30;;;310.37;;
9322;SDS011;4700;48.822;9.270;2023-06-01T00:17:52;339.90;;;324.83;;
9322;SDS011;4700;48.822;9.270;2023-06-01T00:20:41;302.63;;;289.00;;
9322;SDS011;4700;48.822;9.270;2023-06-01T00:23:28;319.87;;;304.10;;
9322;SDS011;4700;48.822;9.270;2023-06-01T00:26:13;326.23;;;310.53;;
9322;SDS011;4700;48.822;9.270;2023-06-01T00:28:59;336.03;;;320.33;;
9322;SDS011;4700;48.822;9.270;2023-06-01T00:31:45;372.63;;;354.13;;
9322;SDS011;4700;48.822;9.270;2023-06-01T00:34:31;364.27;;;346.00;;
9322;SDS011;4700;48.822;9.270;2023-06-01T00:37:18;367.40;;;349.23;;
9322;SDS011;4700;48.822;9.270;2023-06-01T00:40:04;328.80;;;313.17;;
9322;SDS011;4700;48.822;9.270;2023-06-01T00:42:50;332.57;;;316.67;;
9322;SDS011;4700;48.822;9.270;2023-06-01T00:45:36;339.17;;;323.00;;
9322;SDS011;4700;48.822;9.270;2023-06-01T00:48:22;332.83;;;318.07;;
9322;SDS011;4700;48.822;9.270;2023-06-01T00:51:11;317.13;;;303.23;;
9322;SDS011;4700;48.822;9.270;2023-06-01T00:54:00;317.27;;;302.40;;
9322;SDS011;4700;48.822;9.270;2023-06-01T00:56:46;298.73;;;285.83;;
9322;SDS011;4700;48.822;9.270;2023-06-01T00:59:32;278.47;;;266.37;;
9322;SDS011;4700;48.822;9.270;2023-06-01T01:02:19;258.50;;;247.13;;
9322;SDS011;4700;48.822;9.270;2023-06-01T01:05:05;273.17;;;261.57;;
9322;SDS011;4700;48.822;9.270;2023-06-01T01:07:55;264.60;;;253.43;;
9322;SDS011;4700;48.822;9.270;2023-06-01T01:10:55;285.80;;;273.27;;
9322;SDS011;4700;48.822;9.270;2023-06-01T01:13:47;294.00;;;281.47;;
9322;SDS011;4700;48.822;9.270;2023-06-01T01:16:35;257.00;;;246.20;;
9322;SDS011;4700;48.822;9.270;2023-06-01T01:22:46;293.87;;;281.20;;
9322;SDS011;4700;48.822;9.270;2023-06-01T01:29:16;319.13;;;305.20;;
9322;SDS011;4700;48.822;9.270;2023-06-01T01:32:04;336.73;;;321.97;;
9322;SDS011;4700;48.822;9.270;2023-06-01T01:34:51;308.73;;;295.10;;
9322;SDS011;4700;48.822;9.270;2023-06-01T01:37:49;279.83;;;268.03;;
9322;SDS011;4700;48.822;9.270;2023-06-01T01:40:36;331.57;;;317.67;;
9322;SDS011;4700;48.822;9.270;2023-06-01T01:43:21;297.47;;;284.43;;
9322;SDS011;4700;48.822;9.270;2023-06-01T01:46:13;285.87;;;273.70;;
9322;SDS011;4700;48.822;9.270;2023-06-01T01:49:08;307.90;;;294.50;;
9322;SDS011;4700;48.822;9.270;2023-06-01T01:52:02;345.40;;;330.77;;
9322;SDS011;4700;48.822;9.270;2023-06-01T01:54:54;337.70;;;322.07;;
9322;SDS011;4700;48.822;9.270;2023-06-01T01:57:41;265.83;;;254.43;;
9322;SDS011;4700;48.822;9.270;2023-06-01T02:00:29;299.20;;;286.50;;
9322;SDS011;4700;48.822;9.270;2023-06-01T02:03:23;300.00;;;287.23;;
9322;SDS011;4700;48.822;9.270;2023-06-01T02:06:08;297.63;;;284.03;;
9322;SDS011;4700;48.822;9.270;2023-06-01T02:08:54;301.47;;;288.37;;
9322;SDS011;4700;48.822;9.270;2023-06-01T02:11:40;290.67;;;277.87;;
9322;SDS011;4700;48.822;9.270;2023-06-01T02:14:27;316.30;;;301.87;;
9322;SDS011;4700;48.822;9.270;2023-06-01T02:17:12;302.23;;;288.80;;
9322;SDS011;4700;48.822;9.270;2023-06-01T02:20:00;332.80;;;318.83;;
9322;SDS011;4700;48.822;9.270;2023-06-01T02:22:47;314.20;;;300.90;;
9322;SDS011;4700;48.822;9.270;2023-06-01T02:25:32;315.87;;;302.07;;
9322;SDS011;4700;48.822;9.270;2023-06-01T02:28:17;341.93;;;326.17;;
9322;SDS011;4700;48.822;9.270;2023-06-01T02:31:03;334.80;;;319.47;;
9322;SDS011;4700;48.822;9.270;2023-06-01T02:33:49;297.37;;;284.77;;
9322;SDS011;4700;48.822;9.270;2023-06-01T02:36:36;324.70;;;310.40;;
9322;SDS011;4700;48.822;9.270;2023-06-01T02:39:22;340.03;;;324.57;;
9322;SDS011;4700;48.822;9.270;2023-06-01T02:42:08;349.00;;;332.77;;
9322;SDS011;4700;48.822;9.270;2023-06-01T02:44:54;328.30;;;312.77;;
9322;SDS011;4700;48.822;9.270;2023-06-01T02:47:39;356.40;;;339.43;;
9322;SDS011;4700;48.822;9.270;2023-06-01T02:50:25;338.23;;;323.07;;
9322;SDS011;4700;48.822;9.270;2023-06-01T02:53:12;337.10;;;321.33;;
9322;SDS011;4700;48.822;9.270;2023-06-01T02:55:58;376.03;;;358.77;;
9322;SDS011;4700;48.822;9.270;2023-06-01T02:58:44;328.73;;;314.47;;
9322;SDS011;4700;48.822;9.270;2023-06-01T03:01:31;349.30;;;333.07;;
9322;SDS011;4700;48.822;9.270;2023-06-01T03:04:18;345.67;;;330.30;;
9322;SDS011;4700;48.822;9.270;2023-06-01T03:07:04;361.00;;;344.90;;
9322;SDS011;4700;48.822;9.270;2023-06-01T03:09:51;335.50;;;320.27;;
9322;SDS011;4700;48.822;9.270;2023-06-01T03:12:37;331.20;;;317.07;;
9322;SDS011;4700;48.822;9.270;2023-06-01T03:15:23;352.03;;;335.90;;
9322;SDS011;4700;48.822;9.270;2023-06-01T03:18:11;374.07;;;356.50;;
9322;SDS011;4700;48.822;9.270;2023-06-01T03:20:57;340.53;;;326.30;;
9322;SDS011;4700;48.822;9.270;2023-06-01T03:23:43;361.90;;;345.73;;
9322;SDS011;4700;48.822;9.270;2023-06-01T03:26:30;353.77;;;337.67;;
9322;SDS011;4700;48.822;9.270;2023-06-01T03:29:16;384.90;;;367.47;;
9322;SDS011;4700;48.822;9.270;2023-06-01T03:32:01;350.73;;;334.73;;
9322;SDS011;4700;48.822;9.270;2023-06-01T03:34:48;341.37;;;325.87;;
9322;SDS011;4700;48.822;9.270;2023-06-01T03:37:33;334.40;;;319.93;;
9322;SDS011;4700;48.822;9.270;2023-06-01T03:40:19;338.07;;;323.47;;
9322;SDS011;4700;48.822;9.270;2023-06-01T03:43:09;350.03;;;333.93;;
9322;SDS011;4700;48.822;9.270;2023-06-01T03:45:55;334.30;;;319.57;;
9322;SDS011;4700;48.822;9.270;2023-06-01T03:48:41;369.53;;;351.87;;
9322;SDS011;4700;48.822;9.270;2023-06-01T03:51:27;363.87;;;348.07;;
9322;SDS011;4700;48.822;9.270;2023-06-01T03:54:12;340.20;;;324.60;;
9322;SDS011;4700;48.822;9.270;2023-06-01T03:56:58;371.40;;;354.70;;
9322;SDS011;4700;48.822;9.270;2023-06-01T03:59:45;341.57;;;326.83;;
9322;SDS011;4700;48.822;9.270;2023-06-01T04:02:31;332.70;;;318.13;;
9322;SDS011;4700;48.822;9.270;2023-06-01T04:05:17;379.90;;;362.80;;
9322;SDS011;4700;48.822;9.270;2023-06-01T04:08:03;346.10;;;331.03;;
9322;SDS011;4700;48.822;9.270;2023-06-01T04:10:49;351.77;;;336.73;;
9322;SDS011;4700;48.822;9.270;2023-06-01T04:13:35;345.10;;;329.53;;
9322;SDS011;4700;48.822;9.270;2023-06-01T04:16:22;348.03;;;332.30;;
9322;SDS011;4700;48.822;9.270;2023-06-01T04:19:07;356.20;;;340.67;;
9322;SDS011;4700;48.822;9.270;2023-06-01T04:21:53;354.13;;;338.40;;
9322;SDS011;4700;48.822;9.270;2023-06-01T04:24:38;365.70;;;348.67;;
9322;SDS011;4700;48.822;9.270;2023-06-01T04:27:24;370.20;;;353.37;;
9322;SDS011;4700;48.822;9.270;2023-06-01T04:30:10;348.83;;;332.57;;
9322;SDS011;4700;48.822;9.270;2023-06-01T04:32:58;377.47;;;360.13;;
9322;SDS011;4700;48.822;9.270;2023-06-01T04:35:44;363.47;;;346.57;;
9322;SDS011;4700;48.822;9.270;2023-06-01T04:38:29;346.17;;;330.13;;
9322;SDS011;4700;48.822;9.270;2023-06-01T04:41:15;360.03;;;343.60;;
9322;SDS011;4700;48.822;9.270;2023-06-01T04:44:01;361.40;;;344.00;;
9322;SDS011;4700;48.822;9.270;2023-06-01T04:46:49;359.87;;;342.13;;
9322;SDS011;4700;48.822;9.270;2023-06-01T04:49:39;353.83;;;337.17;;
9322;SDS011;4700;48.822;9.270;2023-06-01T04:52:26;351.07;;;334.17;;
9322;SDS011;4700;48.822;9.270;2023-06-01T04:55:12;364.10;;;345.13;;
9322;SDS011;4700;48.822;9.270;2023-06-01T04:57:58;374.43;;;354.87;;
9322;SDS011;4700;48.822;9.270;2023-06-01T05:00:43;360.60;;;344.30;;
9322;SDS011;4700;48.822;9.270;2023-06-01T05:03:30;368.93;;;352.47;;
9322;SDS011;4700;48.822;9.270;2023-06-01T05:06:16;346.43;;;330.77;;
9322;SDS011;4700;48.822;9.270;2023-06-01T05:09:04;335.07;;;319.90;;
9322;SDS011;4700;48.822;9.270;2023-06-01T05:11:50;305.43;;;291.67;;
9322;SDS011;4700;48.822;9.270;2023-06-01T05:14:35;288.57;;;275.57;;
9322;SDS011;4700;48.822;9.270;2023-06-01T05:17:21;284.73;;;272.20;;
9322;SDS011;4700;48.822;9.270;2023-06-01T05:22:39;261.27;;;247.83;;
9322;SDS011;4700;48.822;9.270;2023-06-01T05:25:25;261.70;;;248.70;;
9322;SDS011;4700;48.822;9.270;2023-06-01T05:28:11;258.00;;;244.80;;
9322;SDS011;4700;48.822;9.270;2023-06-01T05:30:57;244.40;;;231.97;;
9322;SDS011;4700;48.822;9.270;2023-06-01T05:33:43;207.77;;;196.40;;
9322;SDS011;4700;48.822;9.270;2023-06-01T05:36:28;450.07;;;217.70;;
9322;SDS011;4700;48.822;9.270;2023-06-01T05:39:16;185.17;;;175.27;;
9322;SDS011;4700;48.822;9.270;2023-06-01T05:42:02;170.37;;;161.63;;
9322;SDS011;4700;48.822;9.270;2023-06-01T05:44:49;134.23;;;127.57;;
9322;SDS011;4700;48.822;9.270;2023-06-01T05:47:34;126.73;;;119.90;;
9322;SDS011;4700;48.822;9.270;2023-06-01T05:50:22;102.53;;;96.00;;
9322;SDS011;4700;48.822;9.270;2023-06-01T05:53:08;86.77;;;81.23;;
9322;SDS011;4700;48.822;9.270;2023-06-01T05:55:55;94.37;;;89.03;;
9322;SDS011;4700;48.822;9.270;2023-06-01T05:58:40;72.07;;;67.37;;
9322;SDS011;4700;48.822;9.270;2023-06-01T06:01:26;79.43;;;74.80;;
9322;SDS011;4700;48.822;9.270;2023-06-01T06:04:12;83.37;;;77.93;;
9322;SDS011;4700;48.822;9.270;2023-06-01T06:06:58;76.23;;;71.50;;
9322;SDS011;4700;48.822;9.270;2023-06-01T06:09:44;86.33;;;81.23;;
9322;SDS011;4700;48.822;9.270;2023-06-01T06:12:31;132.60;;;124.47;;
9322;SDS011;4700;48.822;9.270;2023-06-01T06:15:20;147.67;;;138.63;;
9322;SDS011;4700;48.822;9.270;2023-06-01T06:18:06;158.10;;;151.13;;
9322;SDS011;4700;48.822;9.270;2023-06-01T06:20:52;169.17;;;160.53;;
9322;SDS011;4700;48.822;9.270;2023-06-01T06:23:37;137.67;;;131.33;;
9322;SDS011;4700;48.822;9.270;2023-06-01T06:26:24;111.13;;;105.33;;
9322;SDS011;4700;48.822;9.270;2023-06-01T06:29:12;121.47;;;115.60;;
9322;SDS011;4700;48.822;9.270;2023-06-01T06:31:58;167.27;;;157.77;;
9322;SDS011;4700;48.822;9.270;2023-06-01T06:34:47;107.00;;;102.07;;
9322;SDS011;4700;48.822;9.270;2023-06-01T06:37:32;55.13;;;51.10;;
9322;SDS011;4700;48.822;9.270;2023-06-01T06:40:18;43.37;;;40.17;;
9322;SDS011;4700;48.822;9.270;2023-06-01T06:43:03;33.23;;;30.47;;
9322;SDS011;4700;48.822;9.270;2023-06-01T06:45:51;33.93;;;30.20;;
9322;SDS011;4700;48.822;9.270;2023-06-01T06:48:38;51.97;;;47.37;;
9322;SDS011;4700;48.822;9.270;2023-06-01T06:51:24;51.20;;;36.70;;
9322;SDS011;4700;48.822;9.270;2023-06-01T06:54:09;35.60;;;26.67;;
9322;SDS011;4700;48.822;9.270;2023-06-01T06:56:55;40.97;;;28.27;;
9322;SDS011;4700;48.822;9.270;2023-06-01T06:59:41;25.37;;;17.53;;
9322;SDS011;4700;48.822;9.270;2023-06-01T07:02:28;19.50;;;14.30;;
9322;SDS011;4700;48.822;9.270;2023-06-01T07:05:15;23.70;;;15.13;;
9322;SDS011;4700;48.822;9.270;2023-06-01T07:08:01;22.87;;;13.50;;
9322;SDS011;4700;48.822;9.270;2023-06-01T07:10:47;25.60;;;16.27;;
9322;SDS011;4700;48.822;9.270;2023-06-01T07:13:32;32.67;;;18.83;;
9322;SDS011;4700;48.822;9.270;2023-06-01T07:16:19;27.80;;;17.90;;
9322;SDS011;4700;48.822;9.270;2023-06-01T07:19:07;41.73;;;26.50;;
9322;SDS011;4700;48.822;9.270;2023-06-01T07:21:53;25.50;;;12.80;;
9322;SDS011;4700;48.822;9.270;2023-06-01T07:24:38;43.23;;;23.70;;
9322;SDS011;4700;48.822;9.270;2023-06-01T07:27:25;56.90;;;33.23;;
9322;SDS011;4700;48.822;9.270;2023-06-01T07:30:11;31.47;;;15.13;;
9322;SDS011;4700;48.822;9.270;2023-06-01T07:32:57;26.40;;;13.77;;
9322;SDS011;4700;48.822;9.270;2023-06-01T07:35:44;76.33;;;27.03;;
9322;SDS011;4700;48.822;9.270;2023-06-01T07:38:32;248.87;;;167.63;;
9322;SDS011;4700;48.822;9.270;2023-06-01T07:41:17;34.63;;;19.33;;
9322;SDS011;4700;48.822;9.270;2023-06-01T07:44:03;33.60;;;18.03;;
9322;SDS011;4700;48.822;9.270;2023-06-01T07:46:49;35.77;;;17.30;;
9322;SDS011;4700;48.822;9.270;2023-06-01T07:49:38;56.60;;;34.43;;
9322;SDS011;4700;48.822;9.270;2023-06-01T07:52:25;117.40;;;58.47;;
9322;SDS011;4700;48.822;9.270;2023-06-01T07:55:11;267.53;;;196.50;;
9322;SDS011;4700;48.822;9.270;2023-06-01T07:57:59;38.40;;;18.70;;
9322;SDS011;4700;48.822;9.270;2023-06-01T08:00:45;30.90;;;15.17;;
9322;SDS011;4700;48.822;9.270;2023-06-01T08:03:32;36.10;;;24.47;;
9322;SDS011;4700;48.822;9.270;2023-06-01T08:06:19;18.70;;;15.80;;
9322;SDS011;4700;48.822;9.270;2023-06-01T08:09:09;35.90;;;25.27;;
9322;SDS011;4700;48.822;9.270;2023-06-01T08:11:56;37.33;;;32.20;;
9322;SDS011;4700;48.822;9.270;2023-06-01T08:14:42;28.47;;;25.53;;
9322;SDS011;4700;48.822;9.270;2023-06-01T08:17:29;30.10;;;26.47;;
9322;SDS011;4700;48.822;9.270;2023-06-01T08:20:15;36.50;;;19.57;;
9322;SDS011;4700;48.822;9.270;2023-06-01T08:23:04;32.83;;;29.93;;
9322;SDS011;4700;48.822;9.270;2023-06-01T08:25:52;90.17;;;37.43;;
9322;SDS011;4700;48.822;9.270;2023-06-01T08:28:38;39.40;;;35.70;;
9322;SDS011;4700;48.822;9.270;2023-06-01T08:31:24;221.33;;;50.10;;
9322;SDS011;4700;48.822;9.270;2023-06-01T08:34:09;43.20;;;38.90;;
9322;SDS011;4700;48.822;9.270;2023-06-01T08:36:55;43.67;;;39.77;;
9322;SDS011;4700;48.822;9.270;2023-06-01T08:39:41;36.40;;;33.30;;
9322;SDS011;4700;48.822;9.270;2023-06-01T08:42:30;55.80;;;50.07;;
9322;SDS011;4700;48.822;9.270;2023-06-01T08:45:23;52.50;;;48.23;;
9322;SDS011;4700;48.822;9.270;2023-06-01T08:48:09;64.17;;;43.10;;
9322;SDS011;4700;48.822;9.270;2023-06-01T08:51:00;59.93;;;54.63;;
9322;SDS011;4700;48.822;9.270;2023-06-01T08:53:49;37.93;;;34.57;;
9322;SDS011;4700;48.822;9.270;2023-06-01T08:56:35;35.90;;;31.13;;
9322;SDS011;4700;48.822;9.270;2023-06-01T08:59:27;45.03;;;41.17;;
9322;SDS011;4700;48.822;9.270;2023-06-01T09:02:14;32.80;;;25.17;;
9322;SDS011;4700;48.822;9.270;2023-06-01T09:05:01;35.70;;;32.57;;
9322;SDS011;4700;48.822;9.270;2023-06-01T09:07:48;53.63;;;48.27;;
9322;SDS011;4700;48.822;9.270;2023-06-01T09:10:34;55.77;;;39.43;;
9322;SDS011;4700;48.822;9.270;2023-06-01T09:13:30;30.13;;;25.77;;
9322;SDS011;4700;48.822;9.270;2023-06-01T09:16:18;46.20;;;41.63;;
9322;SDS011;4700;48.822;9.270;2023-06-01T09:19:04;50.47;;;37.73;;
9322;SDS011;4700;48.822;9.270;2023-06-01T09:21:56;36.20;;;30.63;;
9322;SDS011;4700;48.822;9.270;2023-06-01T09:24:44;46.60;;;39.33;;
9322;SDS011;4700;48.822;9.270;2023-06-01T09:27:44;33.63;;;25.07;;
9322;SDS011;4700;48.822;9.270;2023-06-01T09:30:38;48.47;;;43.87;;
9322;SDS011;4700;48.822;9.270;2023-06-01T09:33:27;37.53;;;31.33;;
9322;SDS011;4700;48.822;9.270;2023-06-01T09:36:15;28.87;;;26.00;;
9322;SDS011;4700;48.822;9.270;2023-06-01T09:39:11;38.90;;;35.50;;
9322;SDS011;4700;48.822;9.270;2023-06-01T09:41:58;38.73;;;34.73;;
9322;SDS011;4700;48.822;9.270;2023-06-01T09:44:46;34.77;;;31.33;;
9322;SDS011;4700;48.822;9.270;2023-06-01T09:47:33;27.00;;;24.23;;
9322;SDS011;4700;48.822;9.270;2023-06-01T09:50:33;32.47;;;28.70;;
9322;SDS011;4700;48.822;9.270;2023-06-01T09:53:19;42.00;;;38.30;;
9322;SDS011;4700;48.822;9.270;2023-06-01T09:56:05;45.47;;;34.60;;
9322;SDS011;4700;48.822;9.270;2023-06-01T09:58:55;46.30;;;24.77;;
9322;SDS011;4700;48.822;9.270;2023-06-01T10:01:43;34.77;;;26.60;;
9322;SDS011;4700;48.822;9.270;2023-06-01T10:04:35;34.23;;;28.33;;
9322;SDS011;4700;48.822;9.270;2023-06-01T10:07:27;31.67;;;28.63;;
9322;SDS011;4700;48.822;9.270;2023-06-01T10:10:14;48.80;;;43.63;;
9322;SDS011;4700;48.822;9.270;2023-06-01T10:13:00;34.03;;;27.60;;
9322;SDS011;4700;48.822;9.270;2023-06-01T10:15:47;36.20;;;33.30;;
9322;SDS011;4700;48.822;9.270;2023-06-01T10:18:33;39.70;;;35.07;;
9322;SDS011;4700;48.822;9.270;2023-06-01T10:21:20;55.77;;;36.70;;
9322;SDS011;4700;48.822;9.270;2023-06-01T10:24:08;41.57;;;37.67;;
9322;SDS011;4700;48.822;9.270;2023-06-01T10:26:57;38.83;;;35.20;;
9322;SDS011;4700;48.822;9.270;2023-06-01T10:29:49;29.00;;;26.37;;
9322;SDS011;4700;48.822;9.270;2023-06-01T10:32:41;35.30;;;31.23;;
9322;SDS011;4700;48.822;9.270;2023-06-01T10:38:41;57.33;;;43.70;;
9322;SDS011;4700;48.822;9.270;2023-06-01T10:41:28;47.90;;;43.00;;
9322;SDS011;4700;48.822;9.270;2023-06-01T10:47:43;50.43;;;39.40;;
9322;SDS011;4700;48.822;9.270;2023-06-01T10:50:30;48.63;;;35.60;;
9322;SDS011;4700;48.822;9.270;2023-06-01T10:53:23;42.00;;;38.03;;
9322;SDS011;4700;48.822;9.270;2023-06-01T10:56:20;50.07;;;27.63;;
9322;SDS011;4700;48.822;9.270;2023-06-01T10:59:12;40.90;;;37.53;;
9322;SDS011;4700;48.822;9.270;2023-06-01T11:02:02;41.57;;;34.80;;
9322;SDS011;4700;48.822;9.270;2023-06-01T11:04:49;64.93;;;51.67;;
9322;SDS011;4700;48.822;9.270;2023-06-01T11:07:35;48.47;;;39.93;;
9322;SDS011;4700;48.822;9.270;2023-06-01T11:13:40;45.30;;;41.17;;
9322;SDS011;4700;48.822;9.270;2023-06-01T11:16:31;48.63;;;36.07;;
9322;SDS011;4700;48.822;9.270;2023-06-01T11:19:22;50.20;;;40.17;;
9322;SDS011;4700;48.822;9.270;2023-06-01T11:22:09;31.90;;;23.93;;
9322;SDS011;4700;48.822;9.270;2023-06-01T11:24:56;34.90;;;31.03;;
9322;SDS011;4700;48.822;9.270;2023-06-01T11:27:44;43.40;;;39.77;;
9322;SDS011;4700;48.822;9.270;2023-06-01T11:30:30;274.90;;;60.43;;
9322;SDS011;4700;48.822;9.270;2023-06-01T11:33:21;39.60;;;30.20;;
9322;SDS011;4700;48.822;9.270;2023-06-01T11:36:07;28.20;;;25.57;;
9322;SDS011;4700;48.822;9.270;2023-06-01T11:38:54;90.83;;;37.53;;
9322;SDS011;4700;48.822;9.270;2023-06-01T11:41:40;39.40;;;34.07;;
9322;SDS011;4700;48.822;9.270;2023-06-01T11:44:28;54.77;;;46.23;;
9322;SDS011;4700;48.822;9.270;2023-06-01T11:47:13;62.07;;;57.30;;
9322;SDS011;4700;48.822;9.270;2023-06-01T11:50:00;46.47;;;38.33;;
9322;SDS011;4700;48.822;9.270;2023-06-01T11:52:46;36.87;;;33.77;;
9322;SDS011;4700;48.822;9.270;2023-06-01T11:55:32;62.20;;;33.73;;
9322;SDS011;4700;48.822;9.270;2023-06-01T11:58:20;44.83;;;35.77;;
9322;SDS011;4700;48.822;9.270;2023-06-01T12:01:12;37.87;;;33.63;;
9322;SDS011;4700;48.822;9.270;2023-06-01T12:03:58;38.40;;;32.70;;
9322;SDS011;4700;48.822;9.270;2023-06-01T12:06:47;52.47;;;31.60;;
9322;SDS011;4700;48.822;9.270;2023-06-01T12:09:33;48.33;;;43.17;;
9322;SDS011;4700;48.822;9.270;2023-06-01T12:12:21;52.97;;;47.87;;
9322;SDS011;4700;48.822;9.270;2023-06-01T12:15:18;38.30;;;32.57;;
9322;SDS011;4700;48.822;9.270;2023-06-01T12:18:04;38.40;;;27.37;;
9322;SDS011;4700;48.822;9.270;2023-06-01T12:20:50;32.10;;;28.27;;
9322;SDS011;4700;48.822;9.270;2023-06-01T12:23:37;44.40;;;39.30;;
9322;SDS011;4700;48.822;9.270;2023-06-01T12:26:34;39.00;;;30.10;;
9322;SDS011;4700;48.822;9.270;2023-06-01T12:29:33;36.80;;;33.67;;
9322;SDS011;4700;48.822;9.270;2023-06-01T12:32:21;27.87;;;25.10;;
9322;SDS011;4700;48.822;9.270;2023-06-01T12:35:07;42.47;;;31.20;;
9322;SDS011;4700;48.822;9.270;2023-06-01T12:38:03;36.67;;;29.37;;
9322;SDS011;4700;48.822;9.270;2023-06-01T12:43:56;34.37;;;24.80;;
9322;SDS011;4700;48.822;9.270;2023-06-01T12:46:42;40.47;;;28.30;;
9322;SDS011;4700;48.822;9.270;2023-06-01T12:49:29;43.27;;;37.27;;
9322;SDS011;4700;48.822;9.270;2023-06-01T12:52:15;34.10;;;27.50;;
9322;SDS011;4700;48.822;9.270;2023-06-01T12:55:00;41.20;;;36.60;;
9322;SDS011;4700;48.822;9.270;2023-06-01T12:57:52;31.97;;;24.13;;
9322;SDS011;4700;48.822;9.270;2023-06-01T13:00:38;85.80;;;44.50;;
9322;SDS011;4700;48.822;9.270;2023-06-01T13:03:24;70.80;;;35.60;;
9322;SDS011;4700;48.822;9.270;2023-06-01T13:06:10;35.73;;;25.83;;
9322;SDS011;4700;48.822;9.270;2023-06-01T13:08:56;39.07;;;29.77;;
9322;SDS011;4700;48.822;9.270;2023-06-01T13:11:42;33.87;;;30.67;;
9322;SDS011;4700;48.822;9.270;2023-06-01T13:14:29;33.97;;;30.60;;
9322;SDS011;4700;48.822;9.270;2023-06-01T13:17:15;33.63;;;30.10;;
9322;SDS011;4700;48.822;9.270;2023-06-01T13:20:03;46.97;;;31.93;;
9322;SDS011;4700;48.822;9.270;2023-06-01T13:22:50;30.40;;;26.97;;
9322;SDS011;4700;48.822;9.270;2023-06-01T13:25:37;62.87;;;49.60;;
9322;SDS011;4700;48.822;9.270;2023-06-01T13:28:23;34.77;;;30.60;;
9322;SDS011;4700;48.822;9.270;2023-06-01T13:31:12;36.70;;;33.00;;
9322;SDS011;4700;48.822;9.270;2023-06-01T13:33:58;35.40;;;32.33;;
9322;SDS011;4700;48.822;9.270;2023-06-01T13:36:47;32.87;;;27.93;;
9322;SDS011;4700;48.822;9.270;2023-06-01T13:39:33;46.97;;;39.83;;
9322;SDS011;4700;48.822;9.270;2023-06-01T13:42:18;33.13;;;30.00;;
9322;SDS011;4700;48.822;9.270;2023-06-01T13:45:05;32.80;;;29.97;;
9322;SDS011;4700;48.822;9.270;2023-06-01T13:47:53;35.63;;;32.50;;
9322;SDS011;4700;48.822;9.270;2023-06-01T13:50:41;45.23;;;32.23;;
9322;SDS011;4700;48.822;9.270;2023-06-01T13:53:26;58.83;;;53.20;;
9322;SDS011;4700;48.822;9.270;2023-06-01T13:56:12;43.93;;;32.27;;
9322;SDS011;4700;48.822;9.270;2023-06-01T13:58:58;32.00;;;28.83;;
9322;SDS011;4700;48.822;9.270;2023-06-01T14:01:44;50.43;;;46.17;;
9322;SDS011;4700;48.822;9.270;2023-06-01T14:04:31;33.60;;;27.27;;
9322;SDS011;4700;48.822;9.270;2023-06-01T14:07:17;31.53;;;28.33;;
9322;SDS011;4700;48.822;9.270;2023-06-01T14:10:03;28.07;;;25.93;;
9322;SDS011;4700;48.822;9.270;2023-06-01T14:12:50;35.07;;;27.90;;
9322;SDS011;4700;48.822;9.270;2023-06-01T14:15:36;55.47;;;49.90;;
9322;SDS011;4700;48.822;9.270;2023-06-01T14:18:22;31.27;;;27.83;;
9322;SDS011;4700;48.822;9.270;2023-06-01T14:21:09;30.87;;;27.60;;
9322;SDS011;4700;48.822;9.270;2023-06-01T14:23:55;40.83;;;37.27;;
9322;SDS011;4700;48.822;9.270;2023-06-01T14:26:41;25.87;;;23.87;;
9322;SDS011;4700;48.822;9.270;2023-06-01T14:29:27;25.93;;;24.07;;
9322;SDS011;4700;48.822;9.270;2023-06-01T14:32:12;26.83;;;24.50;;
9322;SDS011;4700;48.822;9.270;2023-06-01T14:34:58;31.37;;;28.37;;
9322;SDS011;4700;48.822;9.270;2023-06-01T14:37:45;31.00;;;27.13;;
9322;SDS011;4700;48.822;9.270;2023-06-01T14:40:31;46.50;;;38.53;;
9322;SDS011;4700;48.822;9.270;2023-06-01T14:43:17;26.00;;;23.40;;
9322;SDS011;4700;48.822;9.270;2023-06-01T14:46:03;32.53;;;29.30;;
9322;SDS011;4700;48.822;9.270;2023-06-01T14:48:48;30.37;;;28.27;;
9322;SDS011;4700;48.822;9.270;2023-06-01T14:51:34;32.17;;;30.10;;
9322;SDS011;4700;48.822;9.270;2023-06-01T14:54:21;33.50;;;30.17;;
9322;SDS011;4700;48.822;9.270;2023-06-01T14:57:07;23.47;;;21.50;;
9322;SDS011;4700;48.822;9.270;2023-06-01T14:59:53;27.60;;;25.37;;
9322;SDS011;4700;48.822;9.270;2023-06-01T15:02:38;34.60;;;31.23;;
9322;SDS011;4700;48.822;9.270;2023-06-01T15:05:24;23.27;;;21.03;;
9322;SDS011;4700;48.822;9.270;2023-06-01T15:08:10;39.07;;;35.60;;
9322;SDS011;4700;48.822;9.270;2023-06-01T15:10:57;36.13;;;32.93;;
9322;SDS011;4700;48.822;9.270;2023-06-01T15:13:42;35.13;;;31.90;;
9322;SDS011;4700;48.822;9.270;2023-06-01T15:16:28;30.70;;;28.30;;
9322;SDS011;4700;48.822;9.270;2023-06-01T15:19:14;31.60;;;29.17;;
9322;SDS011;4700;48.822;9.270;2023-06-01T15:24:30;34.43;;;30.33;;
9322;SDS011;4700;48.822;9.270;2023-06-01T15:27:18;29.53;;;26.93;;
9322;SDS011;4700;48.822;9.270;2023-06-01T15:30:04;26.67;;;24.73;;
9322;SDS011;4700;48.822;9.270;2023-06-01T15:32:50;30.67;;;28.23;;
9322;SDS011;4700;48.822;9.270;2023-06-01T15:35:36;32.60;;;29.10;;
9322;SDS011;4700;48.822;9.270;2023-06-01T15:38:22;26.67;;;24.10;;
9322;SDS011;4700;48.822;9.270;2023-06-01T15:41:07;26.37;;;13.87;;
9322;SDS011;4700;48.822;9.270;2023-06-01T15:43:55;22.40;;;19.97;;
9322;SDS011;4700;48.822;9.270;2023-06-01T15:46:43;24.40;;;22.07;;
9322;SDS011;4700;48.822;9.270;2023-06-01T15:49:29;28.30;;;21.77;;
9322;SDS011;4700;48.822;9.270;2023-06-01T15:52:15;23.43;;;21.33;;
9322;SDS011;4700;48.822;9.270;2023-06-01T15:55:01;20.43;;;18.07;;
9322;SDS011;4700;48.822;9.270;2023-06-01T15:57:46;22.03;;;20.10;;
9322;SDS011;4700;48.822;9.270;2023-06-01T16:00:34;20.90;;;16.60;;
9322;SDS011;4700;48.822;9.270;2023-06-01T16:03:19;16.17;;;15.13;;
9322;SDS011;4700;48.822;9.270;2023-06-01T16:06:05;18.47;;;16.77;;
9322;SDS011;4700;48.822;9.270;2023-06-01T16:08:51;25.60;;;20.33;;
9322;SDS011;4700;48.822;9.270;2023-06-01T16:11:37;30.17;;;17.40;;
9322;SDS011;4700;48.822;9.270;2023-06-01T16:14:22;11.17;;;10.00;;
9322;SDS011;4700;48.822;9.270;2023-06-01T16:17:10;10.93;;;10.03;;
9322;SDS011;4700;48.822;9.270;2023-06-01T16:19:55;12.17;;;11.13;;
9322;SDS011;4700;48.822;9.270;2023-06-01T16:22:42;17.23;;;14.17;;
9322;SDS011;4700;48.822;9.270;2023-06-01T16:25:28;11.17;;;10.33;;
9322;SDS011;4700;48.822;9.270;2023-06-01T16:28:16;14.20;;;13.20;;
9322;SDS011;4700;48.822;9.270;2023-06-01T16:31:02;16.90;;;15.43;;
9322;SDS011;4700;48.822;9.270;2023-06-01T16:33:49;18.93;;;15.37;;
9322;SDS011;4700;48.822;9.270;2023-06-01T16:36:35;21.60;;;17.50;;
9322;SDS011;4700;48.822;9.270;2023-06-01T16:39:23;16.67;;;15.03;;
9322;SDS011;4700;48.822;9.270;2023-06-01T16:42:09;15.33;;;13.93;;
9322;SDS011;4700;48.822;9.270;2023-06-01T16:44:55;20.03;;;17.93;;
9322;SDS011;4700;48.822;9.270;2023-06-01T16:47:41;16.63;;;15.53;;
9322;SDS011;4700;48.822;9.270;2023-06-01T16:50:28;14.87;;;14.03;;
9322;SDS011;4700;48.822;9.270;2023-06-01T16:53:17;19.20;;;17.90;;
9322;SDS011;4700;48.822;9.270;2023-06-01T16:56:02;18.33;;;16.80;;
9322;SDS011;4700;48.822;9.270;2023-06-01T16:58:50;17.53;;;16.27;;
9322;SDS011;4700;48.822;9.270;2023-06-01T17:01:36;15.23;;;14.00;;